LFRG/DOL METAR and TAF weather

Enter ICAO airport designator
Station Type Date Time Source
LFRG METAR 2022/05/26 05:00 UTC NOAA

LFRG 260500Z AUTO 27007KT 9999 BKN014 OVC019 12/11 Q1024


Station Type Date Time Source
LFRG Decoded METAR 2022/05/26 05:00 UTC NOAA

Station name not available
May 26, 2022 - 01:00 AM EDT / 2022.05.26 0500 UTC
Wind: from the W (270 degrees) at 8 MPH (7 KT):0
Visibility: greater than 7 mile(s):0
Sky conditions: overcast
Temperature: 53 F (12 C)
Dew Point: 51 F (11 C)
Relative Humidity: 93%
Pressure (altimeter): 30.24 in. Hg (1024 hPa)
ob: LFRG 260500Z AUTO 27007KT 9999 BKN014 OVC019 12/11 Q1024
cycle: 5

Station Type Date Time Source
LFRG TAF 2014/12/22 18:42 UTC NOAA

TAF
AMD TAF
AMD LFRG 221837Z 2218/2221 25015KT 9999 OVC015
TEMPO 2218/2221 BKN007 PROB30
TEMPO 2218/2221 25015G25KT 4000 DZ BKN003

Example: see airport list